createdAt,value
2023-03-07T00:01:26.272Z,5.30
2023-03-07T00:03:53.326Z,5.30
2023-03-07T00:06:20.163Z,5.30
2023-03-07T00:08:53.128Z,5.30
2023-03-07T00:11:20.185Z,5.30
2023-03-07T00:13:47.620Z,5.30
2023-03-07T00:16:17.027Z,5.20
2023-03-07T00:18:44.266Z,5.30
2023-03-07T00:21:15.412Z,5.20
2023-03-07T00:23:44.195Z,5.20
2023-03-07T00:26:16.949Z,5.20
2023-03-07T00:28:46.854Z,5.20
2023-03-07T00:31:14.448Z,5.20
2023-03-07T00:33:41.785Z,5.10
2023-03-07T00:36:14.946Z,5.20
2023-03-07T00:38:42.343Z,5.20
2023-03-07T00:41:13.186Z,5.10
2023-03-07T00:43:40.984Z,5.10
2023-03-07T00:46:08.578Z,5.10
2023-03-07T00:48:37.555Z,5.10
2023-03-07T00:51:06.133Z,5.10
2023-03-07T00:53:33.104Z,5.10
2023-03-07T00:56:05.641Z,5.10
2023-03-07T00:58:34.903Z,5.10
2023-03-07T01:01:03.474Z,5.10
2023-03-07T01:03:32.199Z,5.10
2023-03-07T01:06:03.453Z,5.10
2023-03-07T01:08:30.313Z,5.10
2023-03-07T01:11:02.271Z,5.00
2023-03-07T01:13:29.912Z,5.00
2023-03-07T01:16:06.234Z,5.00
2023-03-07T01:18:33.027Z,5.10
2023-03-07T01:20:59.824Z,5.10
2023-03-07T01:23:26.475Z,5.10
2023-03-07T01:25:53.138Z,5.10
2023-03-07T01:28:19.885Z,5.10
2023-03-07T01:30:56.154Z,5.10
2023-03-07T01:33:22.807Z,5.10
2023-03-07T01:35:49.567Z,5.20
2023-03-07T01:38:16.289Z,5.20
2023-03-07T01:40:43.056Z,5.20
2023-03-07T01:43:39.306Z,5.20
2023-03-07T01:46:17.961Z,5.20
2023-03-07T01:48:54.050Z,5.10
2023-03-07T01:51:23.744Z,5.20
2023-03-07T01:53:52.475Z,5.10
2023-03-07T01:56:20.602Z,5.10
2023-03-07T01:58:47.728Z,5.10
2023-03-07T02:01:15.190Z,5.10
2023-03-07T02:03:53.433Z,5.10
2023-03-07T02:06:20.864Z,5.10
2023-03-07T02:08:49.676Z,5.10
2023-03-07T02:11:16.799Z,5.10
2023-03-07T02:13:43.606Z,5.00
2023-03-07T02:16:10.405Z,5.00
2023-03-07T02:18:44.624Z,5.00
2023-03-07T02:21:49.822Z,5.00
2023-03-07T02:24:33.638Z,4.90
2023-03-07T02:27:00.349Z,4.90
2023-03-07T02:29:27.075Z,4.80
2023-03-07T02:31:53.854Z,4.80
2023-03-07T02:34:22.193Z,4.80
2023-03-07T02:36:53.171Z,4.80
2023-03-07T02:39:22.126Z,4.80
2023-03-07T02:41:49.977Z,4.80
2023-03-07T02:44:16.791Z,4.80
2023-03-07T02:46:43.581Z,4.80
2023-03-07T02:49:10.338Z,4.80
2023-03-07T02:51:37.106Z,4.80
2023-03-07T02:54:03.867Z,4.80
2023-03-07T02:56:31.187Z,4.80
2023-03-07T02:58:57.915Z,4.80
2023-03-07T03:01:24.601Z,4.80
2023-03-07T03:03:51.504Z,4.80
2023-03-07T03:06:18.310Z,4.80
2023-03-07T03:08:45.018Z,4.80
2023-03-07T03:11:11.755Z,4.70
2023-03-07T03:13:39.120Z,4.70
2023-03-07T03:16:06.145Z,4.80
2023-03-07T03:18:33.158Z,4.70
2023-03-07T03:20:59.974Z,4.70
2023-03-07T03:23:29.888Z,4.70
2023-03-07T03:26:01.475Z,4.70
2023-03-07T03:28:29.106Z,4.70
2023-03-07T03:31:04.698Z,4.70
2023-03-07T03:33:32.481Z,4.70
2023-03-07T03:36:00.681Z,4.70
2023-03-07T03:38:27.709Z,4.70
2023-03-07T03:40:54.370Z,4.70
2023-03-07T03:43:21.238Z,4.80
2023-03-07T03:45:58.196Z,4.70
2023-03-07T03:48:25.523Z,4.70
2023-03-07T03:51:04.993Z,4.70
2023-03-07T03:53:33.157Z,4.80
2023-03-07T03:56:05.934Z,4.70
2023-03-07T03:58:33.498Z,4.70
2023-03-07T04:01:07.732Z,4.80
2023-03-07T04:03:46.099Z,4.70
2023-03-07T04:06:15.957Z,4.70
2023-03-07T04:08:42.775Z,4.70
2023-03-07T04:11:09.501Z,4.70
2023-03-07T04:13:36.513Z,4.70
2023-03-07T04:16:03.972Z,4.70
2023-03-07T04:18:30.967Z,4.70
2023-03-07T04:20:58.154Z,4.70
2023-03-07T04:23:25.542Z,4.70
2023-03-07T04:25:57.461Z,4.80
2023-03-07T04:28:26.166Z,4.80
2023-03-07T04:30:53.229Z,4.80
2023-03-07T04:33:20.650Z,4.80
2023-03-07T04:35:47.351Z,4.80
2023-03-07T04:38:15.310Z,4.80
2023-03-07T04:40:42.242Z,4.80
2023-03-07T04:43:08.912Z,4.70
2023-03-07T04:45:39.756Z,4.70
2023-03-07T04:48:06.978Z,4.60
2023-03-07T04:50:33.678Z,4.50
2023-03-07T04:53:00.406Z,4.50
2023-03-07T04:55:27.102Z,4.50
2023-03-07T04:57:53.785Z,4.60
2023-03-07T05:00:20.768Z,4.60
2023-03-07T05:02:48.597Z,4.60
2023-03-07T05:05:15.946Z,4.50
2023-03-07T05:07:43.827Z,4.60
2023-03-07T05:10:11.291Z,4.60
2023-03-07T05:12:37.973Z,4.50
2023-03-07T05:15:05.335Z,4.50
2023-03-07T05:17:32.199Z,4.60
2023-03-07T05:19:58.947Z,4.50
2023-03-07T05:22:25.684Z,4.50
2023-03-07T05:24:52.436Z,4.50
2023-03-07T05:27:19.110Z,4.50
2023-03-07T05:29:45.888Z,4.50
2023-03-07T05:32:12.727Z,4.50
2023-03-07T05:34:39.384Z,4.60
2023-03-07T05:37:06.084Z,4.50
2023-03-07T05:39:32.894Z,4.50
2023-03-07T05:41:59.568Z,4.40
2023-03-07T05:44:26.252Z,4.40
2023-03-07T05:46:52.995Z,4.40
2023-03-07T05:49:19.828Z,4.30
2023-03-07T05:51:46.577Z,4.20
2023-03-07T05:54:13.359Z,4.20
2023-03-07T05:56:40.064Z,4.10
2023-03-07T05:59:07.848Z,4.00
2023-03-07T06:01:34.770Z,3.90
2023-03-07T06:04:01.476Z,3.90
2023-03-07T06:06:28.527Z,3.90
2023-03-07T06:08:55.189Z,3.90
2023-03-07T06:11:22.083Z,3.90
2023-03-07T06:13:48.721Z,3.90
2023-03-07T06:16:15.493Z,3.80
2023-03-07T06:18:42.335Z,3.90
2023-03-07T06:21:10.386Z,3.90
2023-03-07T06:23:37.522Z,3.80
2023-03-07T06:26:04.846Z,3.90
2023-03-07T06:28:32.895Z,3.80
2023-03-07T06:30:59.896Z,3.80
2023-03-07T06:33:26.827Z,3.90
2023-03-07T06:35:53.623Z,3.90
2023-03-07T06:38:20.479Z,3.90
2023-03-07T06:40:56.366Z,3.90
2023-03-07T06:43:23.428Z,3.90
2023-03-07T06:45:50.153Z,3.90
2023-03-07T06:48:18.145Z,3.80
2023-03-07T06:50:45.515Z,3.80
2023-03-07T06:53:12.168Z,3.70
2023-03-07T06:55:38.929Z,3.70
2023-03-07T06:58:05.637Z,3.60
2023-03-07T07:00:32.335Z,3.50
2023-03-07T07:02:59.198Z,3.50
2023-03-07T07:05:26.130Z,3.40
2023-03-07T07:07:52.785Z,3.40
2023-03-07T07:10:19.538Z,3.40
2023-03-07T07:12:46.169Z,3.40
2023-03-07T07:15:12.821Z,3.30
2023-03-07T07:17:39.494Z,3.30
2023-03-07T07:20:11.505Z,3.30
2023-03-07T07:22:38.200Z,3.30
2023-03-07T07:25:05.281Z,3.20
2023-03-07T07:27:31.923Z,3.20
2023-03-07T07:29:58.547Z,3.20
2023-03-07T07:32:25.727Z,3.20
2023-03-07T07:34:52.468Z,3.20
2023-03-07T07:37:19.141Z,3.10
2023-03-07T07:39:45.892Z,3.20
2023-03-07T07:42:12.869Z,3.20
2023-03-07T07:44:39.558Z,3.10
2023-03-07T07:47:06.265Z,3.20
2023-03-07T07:49:33.005Z,3.20
2023-03-07T07:51:59.675Z,3.10
2023-03-07T07:54:26.421Z,3.20
2023-03-07T07:56:53.116Z,3.20
2023-03-07T07:59:19.880Z,3.20
2023-03-07T08:01:46.543Z,3.20
2023-03-07T08:04:13.186Z,3.20
2023-03-07T08:06:39.900Z,3.20
2023-03-07T08:09:06.569Z,3.20
2023-03-07T08:11:33.400Z,3.30
2023-03-07T08:14:00.126Z,3.30
2023-03-07T08:16:26.881Z,3.40
2023-03-07T08:19:01.135Z,3.40
2023-03-07T08:21:28.557Z,3.40
2023-03-07T08:23:56.039Z,3.50
2023-03-07T08:26:23.482Z,3.60
2023-03-07T08:28:50.169Z,3.60
2023-03-07T08:31:19.843Z,3.70
2023-03-07T08:33:47.845Z,3.70
2023-03-07T08:36:15.233Z,3.70
2023-03-07T08:38:42.519Z,3.80
2023-03-07T08:41:09.786Z,3.80
2023-03-07T08:43:37.378Z,3.80
2023-03-07T08:46:04.691Z,3.80
2023-03-07T08:48:31.708Z,3.90
2023-03-07T08:51:03.878Z,3.90
2023-03-07T08:53:30.605Z,4.00
2023-03-07T08:55:57.268Z,4.00
2023-03-07T08:58:23.946Z,4.00
2023-03-07T09:00:50.655Z,4.10
2023-03-07T09:03:17.384Z,4.10
2023-03-07T09:05:44.392Z,4.20
2023-03-07T09:08:12.119Z,4.20
2023-03-07T09:10:38.832Z,4.30
2023-03-07T09:13:05.564Z,4.40
2023-03-07T09:15:32.239Z,4.50
2023-03-07T09:17:58.924Z,4.50
2023-03-07T09:20:25.585Z,4.40
2023-03-07T09:22:54.156Z,4.40
2023-03-07T09:25:21.079Z,4.40
2023-03-07T09:27:47.754Z,4.40
2023-03-07T09:30:15.591Z,4.40
2023-03-07T09:32:42.768Z,4.50
2023-03-07T09:35:10.354Z,4.60
2023-03-07T09:37:37.296Z,4.70
2023-03-07T09:40:08.421Z,4.80
2023-03-07T09:43:00.171Z,4.80
2023-03-07T09:45:58.951Z,4.90
2023-03-07T09:49:02.670Z,4.80
2023-03-07T09:51:40.972Z,4.80
2023-03-07T09:54:28.523Z,4.80
2023-03-07T09:57:00.744Z,4.80
2023-03-07T09:59:38.202Z,4.80
2023-03-07T10:02:26.316Z,4.80
2023-03-07T10:05:01.840Z,4.80
2023-03-07T10:07:29.490Z,4.80
2023-03-07T10:10:01.501Z,4.80
2023-03-07T10:12:53.050Z,4.80
2023-03-07T10:15:36.160Z,4.80
2023-03-07T10:18:17.196Z,4.70
2023-03-07T10:20:58.693Z,4.80
2023-03-07T10:24:08.109Z,4.90
2023-03-07T10:26:48.879Z,5.00
2023-03-07T10:29:19.060Z,5.10
2023-03-07T10:31:55.182Z,5.20
2023-03-07T10:34:30.733Z,5.30
2023-03-07T10:37:12.214Z,5.40
2023-03-07T10:39:53.238Z,5.50
2023-03-07T10:42:22.769Z,5.60
2023-03-07T10:44:51.054Z,5.90
2023-03-07T10:47:26.407Z,5.70
2023-03-07T10:50:00.559Z,5.80
2023-03-07T10:52:47.384Z,5.90
2023-03-07T10:55:29.972Z,5.80
2023-03-07T10:58:17.079Z,5.80
2023-03-07T11:00:44.716Z,5.80
2023-03-07T11:03:28.964Z,5.70
2023-03-07T11:05:55.704Z,5.70
2023-03-07T11:08:29.544Z,5.60
2023-03-07T11:10:56.265Z,5.60
2023-03-07T11:13:24.523Z,5.60
2023-03-07T11:16:00.189Z,5.80
2023-03-07T11:18:40.690Z,5.90
2023-03-07T11:21:28.624Z,6.00
2023-03-07T11:24:07.007Z,6.10
2023-03-07T11:26:40.110Z,6.20
2023-03-07T11:29:09.700Z,6.20
2023-03-07T11:32:13.908Z,6.20
2023-03-07T11:34:59.359Z,6.00
2023-03-07T11:37:31.527Z,5.80
2023-03-07T11:40:03.834Z,5.60
2023-03-07T11:42:37.296Z,5.60
2023-03-07T11:45:30.372Z,5.40
2023-03-07T11:47:56.974Z,5.30
2023-03-07T11:50:28.910Z,5.30
2023-03-07T11:53:16.117Z,5.40
2023-03-07T11:56:09.273Z,5.40
2023-03-07T11:58:47.602Z,5.50
2023-03-07T12:01:45.225Z,5.40
2023-03-07T12:04:36.806Z,5.30
2023-03-07T12:07:33.742Z,5.20
2023-03-07T12:10:48.103Z,5.10
2023-03-07T12:13:36.024Z,4.90
2023-03-07T12:16:19.673Z,4.70
2023-03-07T12:19:14.664Z,4.60
2023-03-07T12:22:13.557Z,4.60
2023-03-07T12:24:43.074Z,4.60
2023-03-07T12:27:17.244Z,4.40
2023-03-07T12:29:54.523Z,4.40
2023-03-07T12:32:29.289Z,4.40
2023-03-07T12:34:59.091Z,4.40
2023-03-07T12:37:33.361Z,4.50
2023-03-07T12:40:09.904Z,4.50
2023-03-07T12:42:44.651Z,4.60
2023-03-07T12:45:23.066Z,4.80
2023-03-07T12:47:57.844Z,4.80
2023-03-07T12:50:34.315Z,4.90
2023-03-07T12:53:30.435Z,5.00
2023-03-07T12:56:19.681Z,5.00
2023-03-07T12:59:12.895Z,5.10
2023-03-07T13:01:48.094Z,5.30
2023-03-07T13:04:17.791Z,5.30
2023-03-07T13:06:45.645Z,5.40
2023-03-07T13:09:24.988Z,5.60
2023-03-07T13:12:29.503Z,5.60
2023-03-07T13:15:02.159Z,5.70
2023-03-07T13:17:33.207Z,5.80
2023-03-07T13:20:15.313Z,5.80
2023-03-07T13:22:42.767Z,5.90
2023-03-07T13:25:27.707Z,6.00
2023-03-07T13:27:56.496Z,6.10
2023-03-07T13:30:23.397Z,6.00
2023-03-07T13:32:54.337Z,6.10
2023-03-07T13:35:39.226Z,6.20
2023-03-07T13:38:15.169Z,6.30
2023-03-07T13:40:45.117Z,6.30
2023-03-07T13:43:26.316Z,6.20
2023-03-07T13:45:56.880Z,6.30
2023-03-07T13:48:32.218Z,6.20
2023-03-07T13:51:01.930Z,6.10
2023-03-07T13:53:31.809Z,6.20
2023-03-07T13:56:10.650Z,6.20
2023-03-07T13:58:47.793Z,6.20
2023-03-07T14:01:18.740Z,6.30
2023-03-07T14:03:50.200Z,6.30
2023-03-07T14:06:22.801Z,6.30
2023-03-07T14:08:50.996Z,6.40
2023-03-07T14:11:28.159Z,6.30
2023-03-07T14:13:54.863Z,6.30
2023-03-07T14:16:33.984Z,6.20
2023-03-07T14:19:09.163Z,6.10
2023-03-07T14:22:03.781Z,6.00
2023-03-07T14:24:40.917Z,5.70
2023-03-07T14:27:13.812Z,5.40
2023-03-07T14:29:56.984Z,5.10
2023-03-07T14:32:26.137Z,5.00
2023-03-07T14:34:53.403Z,4.90
2023-03-07T14:37:29.007Z,4.70
2023-03-07T14:39:58.942Z,4.60
2023-03-07T14:42:36.617Z,4.60
2023-03-07T14:45:19.099Z,4.50
2023-03-07T14:48:23.930Z,4.50
2023-03-07T14:50:51.098Z,4.50
2023-03-07T14:53:26.623Z,4.40
2023-03-07T14:55:55.270Z,4.40
2023-03-07T14:58:25.600Z,4.20
2023-03-07T15:01:01.345Z,4.10
2023-03-07T15:03:29.260Z,4.10
2023-03-07T15:05:58.899Z,4.10
2023-03-07T15:08:35.236Z,4.00
2023-03-07T15:11:07.622Z,3.90
2023-03-07T15:14:00.865Z,3.80
2023-03-07T15:16:34.295Z,3.70
2023-03-07T15:19:20.056Z,3.70
2023-03-07T15:21:57.998Z,3.60
2023-03-07T15:24:35.513Z,3.70
2023-03-07T15:27:02.944Z,3.70
2023-03-07T15:29:32.787Z,3.80
2023-03-07T15:32:07.145Z,3.80
2023-03-07T15:34:37.545Z,3.80
2023-03-07T15:37:34.487Z,3.80
2023-03-07T15:40:22.379Z,3.80
2023-03-07T15:42:51.226Z,3.70
2023-03-07T15:45:33.314Z,3.70
2023-03-07T15:48:43.446Z,3.70
2023-03-07T15:51:22.640Z,3.60
2023-03-07T15:54:21.970Z,3.60
2023-03-07T15:56:59.431Z,3.60
2023-03-07T15:59:37.114Z,3.50
2023-03-07T16:02:34.944Z,3.60
2023-03-07T16:05:24.831Z,3.60
2023-03-07T16:07:53.679Z,3.60
2023-03-07T16:10:21.483Z,3.50
2023-03-07T16:12:49.405Z,3.50
2023-03-07T16:15:18.399Z,3.40
2023-03-07T16:17:46.006Z,3.40
2023-03-07T16:20:30.869Z,3.40
2023-03-07T16:22:57.850Z,3.40
2023-03-07T16:25:28.272Z,3.40
2023-03-07T16:27:57.948Z,3.40
2023-03-07T16:30:27.931Z,3.40
2023-03-07T16:32:55.535Z,3.40
2023-03-07T16:35:25.317Z,3.40
2023-03-07T16:37:52.676Z,3.40
2023-03-07T16:40:20.286Z,3.40
2023-03-07T16:42:50.361Z,3.30
2023-03-07T16:45:24.761Z,3.30
2023-03-07T16:47:53.331Z,3.30
2023-03-07T16:50:24.285Z,3.30
2023-03-07T16:52:51.029Z,3.40
2023-03-07T16:55:18.473Z,3.30
2023-03-07T16:57:47.820Z,3.40
2023-03-07T17:00:17.587Z,3.40
2023-03-07T17:02:46.009Z,3.40
2023-03-07T17:05:19.297Z,3.50
2023-03-07T17:07:46.476Z,3.40
2023-03-07T17:10:13.736Z,3.40
2023-03-07T17:12:42.202Z,3.50
2023-03-07T17:15:15.119Z,3.50
2023-03-07T17:17:42.302Z,3.40
2023-03-07T17:20:12.919Z,3.40
2023-03-07T17:22:39.560Z,3.40
2023-03-07T17:25:06.714Z,3.40
2023-03-07T17:27:35.262Z,3.40
2023-03-07T17:30:01.919Z,3.30
2023-03-07T17:32:28.788Z,3.30
2023-03-07T17:34:55.501Z,3.30
2023-03-07T17:37:22.176Z,3.20
2023-03-07T17:39:48.837Z,3.10
2023-03-07T17:42:15.577Z,3.10
2023-03-07T17:44:42.239Z,3.20
2023-03-07T17:47:08.957Z,3.00
2023-03-07T17:49:38.397Z,2.90
2023-03-07T17:52:06.946Z,2.90
2023-03-07T17:54:34.492Z,2.90
2023-03-07T17:57:01.738Z,2.80
2023-03-07T17:59:30.927Z,2.90
2023-03-07T18:01:58.012Z,2.80
2023-03-07T18:04:24.683Z,2.80
2023-03-07T18:06:51.452Z,2.70
2023-03-07T18:09:18.746Z,2.70
2023-03-07T18:11:45.471Z,2.70
2023-03-07T18:14:12.640Z,2.60
2023-03-07T18:16:39.388Z,2.50
2023-03-07T18:19:08.316Z,2.50
2023-03-07T18:21:38.968Z,2.50
2023-03-07T18:24:20.558Z,2.60
2023-03-07T18:26:49.565Z,2.50
2023-03-07T18:29:16.458Z,2.50
2023-03-07T18:31:43.352Z,2.40
2023-03-07T18:34:10.555Z,2.40
2023-03-07T18:36:37.383Z,2.40
2023-03-07T18:39:04.610Z,2.40
2023-03-07T18:41:31.751Z,2.30
2023-03-07T18:43:59.225Z,2.30
2023-03-07T18:46:30.429Z,2.30
2023-03-07T18:48:58.597Z,2.20
2023-03-07T18:51:26.988Z,2.20
2023-03-07T18:54:03.541Z,2.10
2023-03-07T18:56:30.881Z,2.00
2023-03-07T18:59:01.481Z,2.00
2023-03-07T19:01:34.012Z,2.00
2023-03-07T19:04:03.564Z,1.90
2023-03-07T19:06:39.620Z,1.90
2023-03-07T19:09:07.985Z,1.80
2023-03-07T19:11:35.989Z,1.70
2023-03-07T19:14:02.768Z,1.70
2023-03-07T19:16:29.555Z,1.70
2023-03-07T19:18:57.073Z,1.60
2023-03-07T19:21:26.651Z,1.60
2023-03-07T19:23:55.017Z,1.60
2023-03-07T19:26:22.281Z,1.60
2023-03-07T19:28:54.051Z,1.50
2023-03-07T19:31:32.152Z,1.50
2023-03-07T19:34:01.456Z,1.50
2023-03-07T19:36:29.668Z,1.50
2023-03-07T19:38:59.042Z,1.60
2023-03-07T19:41:27.863Z,1.40
2023-03-07T19:43:56.333Z,1.30
2023-03-07T19:46:23.596Z,1.30
2023-03-07T19:48:50.426Z,1.30
2023-03-07T19:51:19.842Z,1.20
2023-03-07T19:53:47.461Z,1.30
2023-03-07T19:56:19.942Z,1.20
2023-03-07T19:58:47.035Z,1.20
2023-03-07T20:01:17.048Z,1.10
2023-03-07T20:03:44.486Z,1.20
2023-03-07T20:06:26.320Z,1.10
2023-03-07T20:08:54.292Z,1.10
2023-03-07T20:11:29.495Z,1.10
2023-03-07T20:13:58.697Z,1.00
2023-03-07T20:16:29.044Z,1.00
2023-03-07T20:19:00.807Z,1.00
2023-03-07T20:21:28.859Z,1.00
2023-03-07T20:23:59.119Z,0.90
2023-03-07T20:26:31.867Z,0.90
2023-03-07T20:29:00.173Z,0.90
2023-03-07T20:31:27.618Z,0.90
2023-03-07T20:33:54.774Z,1.00
2023-03-07T20:36:24.378Z,1.10
2023-03-07T20:38:53.602Z,1.10
2023-03-07T20:41:22.794Z,1.00
2023-03-07T20:43:51.151Z,1.20
2023-03-07T20:46:20.269Z,1.20
2023-03-07T20:48:48.546Z,1.20
2023-03-07T20:51:18.781Z,1.20
2023-03-07T20:53:50.266Z,1.10
2023-03-07T20:56:17.866Z,1.10
2023-03-07T20:58:44.891Z,1.10
2023-03-07T21:01:12.693Z,1.10
2023-03-07T21:03:39.471Z,1.10
2023-03-07T21:06:06.593Z,1.10
2023-03-07T21:08:35.925Z,1.00
2023-03-07T21:11:05.701Z,1.00
2023-03-07T21:13:35.027Z,1.00
2023-03-07T21:16:08.048Z,0.90
2023-03-07T21:18:34.950Z,1.00
2023-03-07T21:21:03.873Z,0.90
2023-03-07T21:23:30.570Z,0.90
2023-03-07T21:26:05.475Z,0.90
2023-03-07T21:28:32.964Z,0.90
2023-03-07T21:31:08.918Z,0.90
2023-03-07T21:33:35.794Z,0.90
2023-03-07T21:36:04.114Z,0.90
2023-03-07T21:38:31.283Z,0.90
2023-03-07T21:40:58.837Z,0.80
2023-03-07T21:43:25.718Z,0.80
2023-03-07T21:45:52.668Z,0.80
2023-03-07T21:48:20.685Z,0.80
2023-03-07T21:50:51.972Z,0.70
2023-03-07T21:53:19.476Z,0.70
2023-03-07T21:55:54.144Z,0.70
2023-03-07T21:58:21.981Z,0.70
2023-03-07T22:00:49.874Z,0.60
2023-03-07T22:03:16.867Z,0.60
2023-03-07T22:05:44.008Z,0.60
2023-03-07T22:08:11.219Z,0.60
2023-03-07T22:10:37.994Z,0.60
2023-03-07T22:13:06.812Z,0.60
2023-03-07T22:15:34.081Z,0.50
2023-03-07T22:18:00.984Z,0.50
2023-03-07T22:20:27.765Z,0.50
2023-03-07T22:22:54.475Z,0.50
2023-03-07T22:25:21.180Z,0.40
2023-03-07T22:27:47.869Z,0.50
2023-03-07T22:30:14.807Z,0.50
2023-03-07T22:32:44.574Z,0.50
2023-03-07T22:35:11.387Z,0.40
2023-03-07T22:37:38.382Z,0.40
2023-03-07T22:40:06.642Z,0.40
2023-03-07T22:42:34.182Z,0.40
2023-03-07T22:45:00.895Z,0.40
2023-03-07T22:47:29.345Z,0.40
2023-03-07T22:49:56.074Z,0.40
2023-03-07T22:52:22.904Z,0.40
2023-03-07T22:54:53.344Z,0.40
2023-03-07T22:57:20.360Z,0.30
2023-03-07T22:59:49.867Z,0.30
2023-03-07T23:02:16.525Z,0.30
2023-03-07T23:04:43.430Z,0.30
2023-03-07T23:07:10.196Z,0.30
2023-03-07T23:09:36.905Z,0.40
2023-03-07T23:12:03.729Z,0.40
2023-03-07T23:14:30.430Z,0.50
2023-03-07T23:16:58.176Z,0.50
2023-03-07T23:19:24.846Z,0.60
2023-03-07T23:21:54.663Z,0.60
2023-03-07T23:24:21.371Z,0.60
2023-03-07T23:26:48.723Z,0.60
2023-03-07T23:29:15.944Z,0.60
2023-03-07T23:31:44.345Z,0.60
2023-03-07T23:34:19.237Z,0.70
2023-03-07T23:36:46.416Z,0.50
2023-03-07T23:39:14.748Z,0.50
2023-03-07T23:41:41.379Z,0.50
2023-03-07T23:44:08.213Z,0.40
2023-03-07T23:46:35.011Z,0.40
2023-03-07T23:49:02.177Z,0.40
2023-03-07T23:51:29.186Z,0.40
2023-03-07T23:53:55.902Z,0.40
2023-03-07T23:56:23.763Z,0.30
2023-03-07T23:58:51.749Z,0.00
